createdAt,value
2023-01-12T00:02:37.664Z,8.05
2023-01-12T00:05:30.656Z,9.43
2023-01-12T00:08:25.158Z,4.50
2023-01-12T00:11:19.574Z,8.05
2023-01-12T00:14:12.536Z,9.20
2023-01-12T00:17:06.444Z,6.10
2023-01-12T00:19:59.625Z,9.63
2023-01-12T00:22:52.758Z,10.18
2023-01-12T00:25:54.288Z,7.43
2023-01-12T00:28:48.155Z,6.05
2023-01-12T00:31:42.190Z,8.68
2023-01-12T00:34:35.892Z,9.35
2023-01-12T00:37:28.880Z,15.40
2023-01-12T00:40:21.994Z,5.22
2023-01-12T00:43:33.676Z,6.32
2023-01-12T00:46:31.482Z,8.10
2023-01-12T00:49:24.565Z,5.50
2023-01-12T00:52:30.037Z,5.32
2023-01-12T00:55:23.999Z,6.50
2023-01-12T00:58:17.964Z,7.97
2023-01-12T01:01:11.035Z,9.15
2023-01-12T01:04:05.108Z,7.97
2023-01-12T01:06:59.168Z,7.07
2023-01-12T01:09:53.200Z,10.93
2023-01-12T01:12:46.985Z,9.57
2023-01-12T01:15:41.290Z,7.43
2023-01-12T01:18:35.471Z,8.20
2023-01-12T01:21:28.671Z,7.00
2023-01-12T01:24:22.051Z,7.65
2023-01-12T01:27:14.648Z,7.53
2023-01-12T01:30:09.430Z,5.38
2023-01-12T01:33:04.166Z,8.27
2023-01-12T01:35:57.785Z,6.82
2023-01-12T01:38:51.797Z,6.40
2023-01-12T01:41:44.818Z,7.18
2023-01-12T01:44:53.765Z,8.45
2023-01-12T01:47:50.241Z,11.32
2023-01-12T01:50:51.544Z,8.07
2023-01-12T01:53:47.803Z,8.13
2023-01-12T01:56:40.924Z,7.85
2023-01-12T01:59:37.359Z,8.65
2023-01-12T02:02:31.011Z,8.93
2023-01-12T02:05:26.840Z,8.52
2023-01-12T02:08:26.204Z,7.72
2023-01-12T02:11:38.354Z,6.70
2023-01-12T02:14:49.916Z,5.20
2023-01-12T02:17:56.401Z,10.82
2023-01-12T02:21:05.268Z,6.72
2023-01-12T02:24:26.570Z,8.07
2023-01-12T02:27:32.591Z,6.53
2023-01-12T02:31:15.419Z,10.13
2023-01-12T02:34:20.854Z,8.38
2023-01-12T02:37:23.844Z,9.18
2023-01-12T02:40:24.482Z,6.57
2023-01-12T02:43:24.871Z,8.43
2023-01-12T02:46:22.851Z,8.98
2023-01-12T02:49:21.219Z,6.80
2023-01-12T02:52:17.747Z,5.65
2023-01-12T02:55:12.981Z,8.88
2023-01-12T02:58:10.880Z,7.82
2023-01-12T03:01:05.405Z,9.52
2023-01-12T03:04:03.685Z,5.85
2023-01-12T03:07:35.756Z,8.30
2023-01-12T03:10:47.510Z,10.68
2023-01-12T03:13:45.190Z,7.47
2023-01-12T03:16:40.413Z,7.40
2023-01-12T03:19:36.713Z,6.50
2023-01-12T03:22:33.309Z,6.30
2023-01-12T03:25:31.472Z,5.47
2023-01-12T03:28:28.293Z,6.88
2023-01-12T03:31:23.932Z,9.68
2023-01-12T03:34:16.798Z,9.85
2023-01-12T03:37:16.833Z,6.00
2023-01-12T03:40:14.155Z,6.57
2023-01-12T03:43:13.320Z,9.32
2023-01-12T03:46:14.192Z,7.78
2023-01-12T03:49:12.862Z,5.80
2023-01-12T03:52:08.509Z,7.55
2023-01-12T03:55:06.129Z,11.10
2023-01-12T03:57:59.793Z,10.27
2023-01-12T04:00:52.909Z,6.00
2023-01-12T04:03:46.381Z,6.70
2023-01-12T04:06:39.980Z,11.02
2023-01-12T04:09:32.771Z,7.47
2023-01-12T04:12:27.389Z,10.23
2023-01-12T04:15:20.692Z,7.78
2023-01-12T04:18:14.157Z,5.28
2023-01-12T04:21:27.188Z,8.00
2023-01-12T04:24:19.131Z,8.38
2023-01-12T04:27:11.855Z,9.45
2023-01-12T04:30:07.205Z,7.50
2023-01-12T04:33:01.139Z,7.75
2023-01-12T04:35:53.788Z,9.93
2023-01-12T04:38:47.285Z,7.20
2023-01-12T04:41:41.137Z,8.95
2023-01-12T04:44:34.893Z,7.38
2023-01-12T04:47:29.460Z,10.93
2023-01-12T04:50:22.873Z,9.18
2023-01-12T04:53:16.251Z,6.13
2023-01-12T04:56:10.369Z,6.72
2023-01-12T04:59:04.024Z,6.95
2023-01-12T05:01:57.149Z,9.82
2023-01-12T05:04:51.512Z,6.65
2023-01-12T05:07:59.036Z,6.35
2023-01-12T05:10:52.506Z,6.63
2023-01-12T05:13:46.081Z,7.45
2023-01-12T05:16:39.188Z,7.13
2023-01-12T05:19:32.176Z,8.82
2023-01-12T05:22:26.321Z,8.48
2023-01-12T05:25:20.155Z,6.22
2023-01-12T05:28:13.184Z,8.20
2023-01-12T05:31:08.147Z,6.25
2023-01-12T05:34:00.926Z,6.55
2023-01-12T05:36:53.940Z,8.63
2023-01-12T05:39:48.214Z,9.55
2023-01-12T05:42:58.559Z,6.72
2023-01-12T05:45:51.992Z,6.97
2023-01-12T05:48:45.197Z,8.27
2023-01-12T05:51:37.935Z,11.38
2023-01-12T05:54:31.507Z,6.40
2023-01-12T05:57:26.091Z,8.88
2023-01-12T06:00:20.034Z,5.30
2023-01-12T06:03:13.344Z,5.13
2023-01-12T06:06:06.494Z,6.55
2023-01-12T06:09:02.116Z,8.45
2023-01-12T06:12:12.344Z,8.15
2023-01-12T06:15:08.383Z,7.60
2023-01-12T06:18:01.819Z,5.70
2023-01-12T06:20:54.698Z,6.80
2023-01-12T06:23:48.350Z,5.80
2023-01-12T06:26:45.235Z,8.38
2023-01-12T06:29:37.957Z,4.35
2023-01-12T06:32:33.600Z,6.97
2023-01-12T06:35:27.046Z,5.25
2023-01-12T06:38:23.167Z,6.45
2023-01-12T06:41:29.773Z,7.90
2023-01-12T06:44:23.337Z,7.20
2023-01-12T06:47:16.057Z,8.07
2023-01-12T06:50:12.153Z,8.50
2023-01-12T06:53:06.975Z,9.50
2023-01-12T06:56:00.629Z,6.75
2023-01-12T06:58:54.205Z,6.97
2023-01-12T07:01:47.236Z,4.82
2023-01-12T07:04:39.797Z,6.00
2023-01-12T07:07:34.596Z,8.07
2023-01-12T07:10:28.255Z,5.57
2023-01-12T07:13:21.919Z,8.82
2023-01-12T07:16:14.927Z,6.38
2023-01-12T07:19:08.208Z,8.82
2023-01-12T07:22:00.973Z,7.90
2023-01-12T07:24:57.615Z,7.97
2023-01-12T07:27:51.807Z,8.75
2023-01-12T07:30:45.170Z,6.53
2023-01-12T07:33:38.567Z,9.40
2023-01-12T07:36:32.468Z,7.25
2023-01-12T07:39:26.001Z,7.55
2023-01-12T07:42:26.020Z,8.55
2023-01-12T07:45:19.006Z,13.00
2023-01-12T07:48:12.089Z,5.85
2023-01-12T07:51:05.603Z,8.38
2023-01-12T07:53:59.044Z,9.05
2023-01-12T07:56:51.754Z,5.28
2023-01-12T07:59:46.353Z,8.05
2023-01-12T08:02:39.341Z,4.93
2023-01-12T08:05:32.509Z,4.43
2023-01-12T08:08:26.263Z,6.13
2023-01-12T08:11:19.009Z,4.53
2023-01-12T08:14:25.007Z,4.60
2023-01-12T08:17:23.210Z,8.73
2023-01-12T08:20:19.491Z,6.57
2023-01-12T08:23:17.471Z,5.95
2023-01-12T08:26:14.250Z,12.50
2023-01-12T08:29:13.101Z,12.70
2023-01-12T08:35:05.405Z,13.60
2023-01-12T08:37:58.389Z,12.13
2023-01-12T08:41:08.514Z,8.00
2023-01-12T08:44:06.541Z,15.27
2023-01-12T08:47:00.139Z,8.95
2023-01-12T08:49:53.087Z,14.95
2023-01-12T08:52:47.776Z,9.88
2023-01-12T08:55:41.107Z,14.45
2023-01-12T08:58:34.137Z,7.65
2023-01-12T09:19:09.793Z,5.68
2023-01-12T09:22:03.409Z,11.95
2023-01-12T09:24:56.216Z,8.23
2023-01-12T09:27:49.247Z,6.40
2023-01-12T09:30:42.575Z,5.72
2023-01-12T09:33:37.322Z,9.13
2023-01-12T09:36:33.705Z,4.13
2023-01-12T09:39:28.837Z,4.63
2023-01-12T09:42:41.374Z,5.72
2023-01-12T09:45:51.733Z,5.22
2023-01-12T09:48:45.841Z,8.02
2023-01-12T09:51:48.893Z,3.85
2023-01-12T09:54:42.905Z,6.80
2023-01-12T09:57:53.522Z,8.18
2023-01-12T10:00:51.626Z,6.75
2023-01-12T10:03:45.091Z,5.53
2023-01-12T10:06:38.195Z,3.47
2023-01-12T10:09:34.619Z,3.65
2023-01-12T10:12:35.051Z,4.80
2023-01-12T10:15:41.613Z,4.68
2023-01-12T10:18:40.846Z,4.55
2023-01-12T10:21:33.921Z,2.97
2023-01-12T10:24:27.419Z,3.67
2023-01-12T10:27:21.630Z,5.18
2023-01-12T10:30:18.468Z,4.28
2023-01-12T10:33:12.785Z,5.93
2023-01-12T10:36:10.705Z,3.50
2023-01-12T10:39:05.759Z,4.55
2023-01-12T10:42:39.476Z,3.95
2023-01-12T10:45:32.219Z,2.55
2023-01-12T10:48:26.584Z,7.18
2023-01-12T10:51:26.787Z,3.30
2023-01-12T10:54:21.892Z,4.78
2023-01-12T10:57:20.185Z,1.98
2023-01-12T11:00:21.928Z,2.10
2023-01-12T11:03:33.792Z,2.38
2023-01-12T11:06:30.505Z,2.80
2023-01-12T11:09:25.878Z,3.10
2023-01-12T11:12:23.692Z,2.30
2023-01-12T11:15:19.983Z,1.25
2023-01-12T11:18:32.278Z,3.63
2023-01-12T11:21:31.642Z,4.47
2023-01-12T11:24:36.020Z,6.55
2023-01-12T11:27:35.477Z,2.85
2023-01-12T11:30:37.075Z,1.52
2023-01-12T11:33:36.027Z,3.85
2023-01-12T11:36:32.445Z,2.65
2023-01-12T11:39:26.813Z,3.67
2023-01-12T11:42:40.909Z,2.30
2023-01-12T11:45:46.209Z,2.17
2023-01-12T11:48:48.009Z,2.53
2023-01-12T11:51:41.979Z,2.10
2023-01-12T11:54:38.150Z,1.35
2023-01-12T11:57:58.505Z,3.42
2023-01-12T12:01:03.145Z,2.22
2023-01-12T12:04:04.043Z,2.55
2023-01-12T12:07:07.215Z,3.03
2023-01-12T12:10:16.245Z,1.80
2023-01-12T12:13:28.819Z,1.88
2023-01-12T12:16:31.088Z,1.92
2023-01-12T12:19:34.862Z,2.83
2023-01-12T12:22:42.118Z,2.20
2023-01-12T12:25:41.785Z,2.28
2023-01-12T12:29:02.830Z,2.63
2023-01-12T12:32:12.374Z,2.20
2023-01-12T12:35:18.811Z,2.40
2023-01-12T12:38:24.606Z,2.22
2023-01-12T12:41:45.050Z,2.97
2023-01-12T12:45:09.631Z,2.53
2023-01-12T12:48:12.092Z,2.25
2023-01-12T12:51:08.960Z,1.58
2023-01-12T12:54:06.629Z,1.90
2023-01-12T12:57:00.745Z,1.75
2023-01-12T12:59:59.619Z,3.10
2023-01-12T13:02:55.837Z,1.63
2023-01-12T13:06:10.322Z,1.75
2023-01-12T13:09:05.561Z,1.70
2023-01-12T13:12:19.932Z,2.08
2023-01-12T13:15:23.520Z,2.05
2023-01-12T13:18:41.966Z,2.17
2023-01-12T13:21:56.337Z,2.90
2023-01-12T13:24:49.626Z,3.65
2023-01-12T13:27:54.159Z,5.00
2023-01-12T13:30:51.878Z,7.07
2023-01-12T13:33:45.485Z,4.30
2023-01-12T13:36:38.242Z,8.30
2023-01-12T13:39:36.155Z,9.57
2023-01-12T13:42:46.899Z,8.38
2023-01-12T13:45:40.766Z,8.57
2023-01-12T13:48:36.810Z,6.47
2023-01-12T13:51:35.297Z,8.98
2023-01-12T13:54:29.327Z,3.95
2023-01-12T13:57:25.641Z,3.05
2023-01-12T14:00:22.269Z,5.40
2023-01-12T14:03:39.529Z,5.10
2023-01-12T14:06:42.480Z,6.18
2023-01-12T14:09:46.097Z,10.52
2023-01-12T14:13:05.496Z,3.75
2023-01-12T14:16:19.853Z,6.00
2023-01-12T14:19:28.552Z,2.60
2023-01-12T14:22:21.904Z,4.13
2023-01-12T14:25:17.214Z,7.15
2023-01-12T14:28:19.291Z,4.88
2023-01-12T14:31:21.006Z,3.55
2023-01-12T14:34:26.301Z,5.28
2023-01-12T14:37:27.995Z,3.63
2023-01-12T14:40:25.181Z,3.35
2023-01-12T14:43:37.439Z,3.95
2023-01-12T14:46:33.696Z,2.95
2023-01-12T14:49:29.327Z,3.40
2023-01-12T14:52:26.686Z,3.97
2023-01-12T14:55:26.875Z,2.38
2023-01-12T14:58:22.721Z,2.65
2023-01-12T15:01:31.875Z,2.40
2023-01-12T15:04:26.457Z,7.30
2023-01-12T15:07:21.110Z,5.35
2023-01-12T15:10:32.614Z,3.50
2023-01-12T15:13:29.328Z,3.97
2023-01-12T15:16:40.189Z,4.25
2023-01-12T15:19:50.789Z,4.47
2023-01-12T15:23:01.707Z,3.80
2023-01-12T15:25:55.079Z,4.47
2023-01-12T15:28:50.558Z,5.43
2023-01-12T15:31:43.972Z,2.60
2023-01-12T15:34:37.835Z,3.90
2023-01-12T15:37:31.414Z,3.92
2023-01-12T15:40:25.702Z,5.13
2023-01-12T15:43:19.028Z,3.33
2023-01-12T15:46:20.146Z,7.65
2023-01-12T15:49:14.454Z,2.28
2023-01-12T15:52:12.770Z,1.42
2023-01-12T15:55:07.836Z,1.70
2023-01-12T15:58:02.373Z,2.72
2023-01-12T16:00:55.881Z,3.03
2023-01-12T16:04:15.156Z,4.80
2023-01-12T16:07:03.318Z,2.50
2023-01-12T16:09:56.797Z,2.10
2023-01-12T16:12:49.539Z,1.67
2023-01-12T16:15:42.519Z,2.53
2023-01-12T16:18:36.027Z,1.75
2023-01-12T16:21:30.877Z,2.42
2023-01-12T16:24:26.570Z,2.13
2023-01-12T16:27:21.149Z,1.75
2023-01-12T16:30:16.672Z,2.35
2023-01-12T16:33:09.685Z,3.70
2023-01-12T16:36:02.807Z,2.72
2023-01-12T16:38:59.320Z,3.97
2023-01-12T16:41:53.159Z,4.05
2023-01-12T16:44:46.350Z,2.55
2023-01-12T16:47:39.638Z,1.88
2023-01-12T16:50:32.910Z,1.60
2023-01-12T16:53:27.450Z,2.33
2023-01-12T16:56:22.083Z,2.38
2023-01-12T16:59:15.598Z,4.22
2023-01-12T17:02:11.270Z,1.17
2023-01-12T17:05:04.811Z,3.63
2023-01-12T17:07:58.704Z,4.43
2023-01-12T17:10:55.459Z,2.03
2023-01-12T17:13:53.135Z,3.70
2023-01-12T17:16:47.129Z,3.03
2023-01-12T17:19:43.442Z,4.00
2023-01-12T17:22:36.682Z,5.28
2023-01-12T17:25:29.524Z,5.25
2023-01-12T17:28:22.426Z,1.70
2023-01-12T17:31:19.116Z,2.45
2023-01-12T17:34:15.060Z,1.35
2023-01-12T17:37:09.041Z,3.03
2023-01-12T17:40:02.894Z,3.92
2023-01-12T17:43:07.784Z,1.88
2023-01-12T17:46:03.595Z,1.27
2023-01-12T17:49:00.604Z,6.00
2023-01-12T17:51:53.716Z,0.80
2023-01-12T17:54:46.675Z,2.45
2023-01-12T17:57:39.675Z,0.80
2023-01-12T18:00:33.626Z,2.20
2023-01-12T18:03:26.933Z,1.65
2023-01-12T18:06:28.876Z,2.53
2023-01-12T18:09:21.962Z,1.05
2023-01-12T18:12:16.300Z,1.00
2023-01-12T18:15:10.935Z,0.68
2023-01-12T18:18:04.532Z,1.60
2023-01-12T18:21:04.685Z,1.83
2023-01-12T18:23:59.279Z,0.95
2023-01-12T18:26:52.690Z,1.25
2023-01-12T18:29:45.629Z,0.85
2023-01-12T18:32:39.594Z,1.27
2023-01-12T18:35:36.189Z,1.45
2023-01-12T18:38:29.381Z,1.20
2023-01-12T18:41:42.266Z,0.38
2023-01-12T18:44:36.636Z,0.90
2023-01-12T18:47:46.713Z,1.20
2023-01-12T18:50:57.299Z,0.73
2023-01-12T18:53:50.578Z,0.60
2023-01-12T18:56:47.600Z,0.85
2023-01-12T18:59:41.894Z,0.80
2023-01-12T19:02:35.792Z,3.88
2023-01-12T19:05:35.138Z,0.75
2023-01-12T19:08:46.914Z,1.05
2023-01-12T19:11:40.737Z,5.10
2023-01-12T19:14:52.894Z,1.52
2023-01-12T19:17:45.601Z,1.95
2023-01-12T19:20:40.244Z,3.20
2023-01-12T19:23:50.658Z,2.60
2023-01-12T19:27:01.201Z,4.35
2023-01-12T19:29:55.920Z,2.15
2023-01-12T19:32:48.752Z,3.53
2023-01-12T19:35:42.416Z,4.07
2023-01-12T19:38:36.833Z,8.57
2023-01-12T19:41:47.252Z,3.38
2023-01-12T19:44:41.098Z,5.35
2023-01-12T19:47:36.904Z,5.15
2023-01-12T19:50:29.788Z,4.43
2023-01-12T19:53:25.878Z,2.35
2023-01-12T19:56:19.114Z,3.97
2023-01-12T19:59:13.516Z,2.88
2023-01-12T20:02:06.755Z,3.75
2023-01-12T20:05:01.214Z,2.42
2023-01-12T20:07:55.923Z,3.88
2023-01-12T20:10:54.463Z,4.07
2023-01-12T20:13:48.321Z,2.10
2023-01-12T20:16:41.479Z,2.15
2023-01-12T20:19:35.235Z,1.25
2023-01-12T20:22:30.209Z,3.65
2023-01-12T20:25:27.929Z,3.65
2023-01-12T20:28:21.913Z,1.98
2023-01-12T20:31:16.921Z,0.77
2023-01-12T20:34:10.238Z,4.30
2023-01-12T20:37:03.903Z,2.90
2023-01-12T20:39:58.293Z,1.90
2023-01-12T20:42:52.072Z,1.17
2023-01-12T20:45:46.785Z,2.38
2023-01-12T20:48:41.481Z,1.70
2023-01-12T20:51:34.918Z,1.52
2023-01-12T20:54:27.936Z,1.98
2023-01-12T20:57:22.525Z,3.58
2023-01-12T21:00:15.810Z,3.55
2023-01-12T21:03:08.915Z,1.80
2023-01-12T21:06:01.767Z,0.47
2023-01-12T21:08:54.916Z,2.50
2023-01-12T21:11:49.717Z,0.77
2023-01-12T21:14:43.938Z,1.67
2023-01-12T21:17:39.128Z,0.63
2023-01-12T21:20:32.588Z,0.43
2023-01-12T21:23:26.738Z,0.52
2023-01-12T21:26:19.771Z,0.98
2023-01-12T21:29:13.339Z,2.15
2023-01-12T21:32:08.275Z,0.82
2023-01-12T21:35:01.996Z,1.38
2023-01-12T21:37:54.790Z,1.55
2023-01-12T21:40:47.832Z,2.20
2023-01-12T21:43:40.764Z,1.85
2023-01-12T21:46:33.895Z,1.00
2023-01-12T21:49:28.216Z,1.58
2023-01-12T21:52:21.966Z,1.95
2023-01-12T21:55:14.935Z,0.63
2023-01-12T21:58:07.797Z,0.95
2023-01-12T22:01:01.188Z,1.10
2023-01-12T22:03:56.921Z,2.65
2023-01-12T22:06:52.874Z,1.70
2023-01-12T22:09:45.788Z,0.93
2023-01-12T22:12:38.552Z,1.30
2023-01-12T22:15:32.077Z,0.75
2023-01-12T22:18:24.994Z,1.35
2023-01-12T22:21:19.334Z,0.73
2023-01-12T22:24:14.502Z,0.65
2023-01-12T22:27:07.957Z,0.57
2023-01-12T22:30:01.469Z,2.15
2023-01-12T22:32:56.554Z,0.77
2023-01-12T22:35:49.810Z,1.13
2023-01-12T22:38:42.933Z,0.32
2023-01-12T22:41:38.597Z,0.82
2023-01-12T22:44:32.300Z,2.00
2023-01-12T22:47:25.758Z,0.95
2023-01-12T22:50:18.690Z,1.85
2023-01-12T22:53:13.229Z,1.58
2023-01-12T22:56:07.806Z,1.38
2023-01-12T22:59:02.289Z,1.67
2023-01-12T23:02:16.187Z,1.30
2023-01-12T23:05:10.127Z,2.78
2023-01-12T23:08:03.715Z,1.13
2023-01-12T23:11:04.030Z,1.42
2023-01-12T23:13:56.855Z,0.98
2023-01-12T23:16:51.391Z,1.65
2023-01-12T23:19:45.110Z,1.67
2023-01-12T23:22:37.835Z,2.10
2023-01-12T23:25:32.480Z,1.73
2023-01-12T23:28:25.823Z,1.58
2023-01-12T23:31:22.114Z,2.60
2023-01-12T23:34:16.502Z,1.48
2023-01-12T23:37:09.897Z,0.93
2023-01-12T23:40:03.345Z,2.17
2023-01-12T23:42:56.721Z,1.90
2023-01-12T23:45:49.782Z,2.75
2023-01-12T23:48:42.781Z,1.42
2023-01-12T23:51:37.279Z,2.65
2023-01-12T23:54:31.181Z,1.10
2023-01-12T23:57:25.281Z,0.68
